Time;durP1;ratioP1;P1;durP2;ratioP2;P2;SDS_P1;SDS_P2;PMS_P1;PMS_P2;Temp;Humidity;BMP_temperature;BMP_pressure;BME280_temperature;BME280_humidity;BME280_pressure;Samples;Min_cycle;Max_cycle;Signal;HPM_P1;HPM_P2
2023/07/04 00:00:25;;;;;;;5.33;2.70;;;18.00;99.90;;;;;;5048794;28;20451;-65
2023/07/04 00:02:50;;;;;;;4.50;2.37;;;18.00;99.90;;;;;;5047524;28;20186;-66
2023/07/04 00:05:17;;;;;;;6.40;2.60;;;18.10;99.90;;;;;;5048661;28;20680;-66
2023/07/04 00:07:42;;;;;;;5.40;2.57;;;18.10;99.90;;;;;;5048716;28;20186;-66
2023/07/04 00:10:09;;;;;;;4.43;2.50;;;18.10;99.90;;;;;;5046987;28;20475;-66
2023/07/04 00:12:34;;;;;;;3.93;2.20;;;18.10;99.90;;;;;;5048609;28;20180;-66
2023/07/04 00:15:00;;;;;;;6.07;2.20;;;18.00;99.90;;;;;;5048645;28;20945;-67
2023/07/04 00:17:26;;;;;;;2.70;2.17;;;18.10;99.90;;;;;;5048654;28;20263;-66
2023/07/04 00:19:52;;;;;;;2.67;2.13;;;18.10;99.90;;;;;;5048458;28;20213;-66
2023/07/04 00:22:18;;;;;;;5.70;2.20;;;18.00;99.90;;;;;;5048504;28;20819;-66
2023/07/04 00:24:44;;;;;;;3.63;1.70;;;18.00;99.90;;;;;;5046555;28;20275;-66
2023/07/04 00:27:12;;;;;;;6.23;1.53;;;18.00;99.90;;;;;;5048367;28;20191;-66
2023/07/04 00:29:38;;;;;;;3.20;1.70;;;17.90;99.90;;;;;;5047998;28;20962;-66
2023/07/04 00:32:05;;;;;;;6.33;2.03;;;17.90;99.90;;;;;;5048017;28;20457;-66
2023/07/04 00:34:31;;;;;;;3.10;1.67;;;17.90;99.90;;;;;;5048094;28;20476;-66
2023/07/04 00:36:59;;;;;;;2.00;1.20;;;17.90;99.90;;;;;;5048407;28;20409;-66
2023/07/04 00:39:26;;;;;;;4.40;2.00;;;17.90;99.90;;;;;;5048210;28;20182;-66
2023/07/04 00:41:52;;;;;;;1.83;1.50;;;17.90;99.90;;;;;;5046496;28;20474;-66
2023/07/04 00:44:30;;;;;;;1.73;1.60;;;17.90;99.90;;;;;;5048145;28;20414;-67
2023/07/04 00:47:12;;;;;;;7.03;2.07;;;17.90;99.90;;;;;;5047959;28;20421;-66
2023/07/04 00:49:48;;;;;;;2.20;1.73;;;17.80;99.90;;;;;;5048503;28;20871;-66
2023/07/04 00:52:28;;;;;;;3.17;1.93;;;17.60;99.90;;;;;;5048027;28;20418;-66
2023/07/04 00:54:58;;;;;;;2.83;1.80;;;17.50;99.90;;;;;;5048077;28;20410;-65
2023/07/04 00:57:37;;;;;;;3.73;1.43;;;17.60;99.90;;;;;;5048047;28;20842;-67
2023/07/04 01:00:18;;;;;;;2.93;1.80;;;17.50;99.90;;;;;;5047885;28;20440;-67
2023/07/04 01:03:11;;;;;;;2.10;1.80;;;17.50;99.90;;;;;;5047998;28;20409;-66
2023/07/04 01:06:09;;;;;;;3.03;1.60;;;17.60;99.90;;;;;;5045125;28;20447;-67
2023/07/04 01:08:43;;;;;;;3.97;1.63;;;17.60;99.90;;;;;;5046525;28;20475;-67
2023/07/04 01:11:19;;;;;;;3.77;1.83;;;17.60;99.90;;;;;;5047823;28;20433;-67
2023/07/04 01:13:45;;;;;;;2.50;1.97;;;17.70;99.90;;;;;;5047927;28;20441;-66
2023/07/04 01:16:17;;;;;;;3.43;1.57;;;17.70;99.90;;;;;;5047850;28;20795;-66
2023/07/04 01:18:47;;;;;;;3.13;2.20;;;17.70;99.90;;;;;;5047871;28;20411;-67
2023/07/04 01:21:15;;;;;;;3.37;1.90;;;17.80;99.90;;;;;;5047893;28;20790;-66
2023/07/04 01:24:09;;;;;;;3.13;1.87;;;17.80;99.90;;;;;;5047721;28;20420;-67
2023/07/04 01:26:36;;;;;;;3.07;1.80;;;17.80;99.90;;;;;;5048099;28;20410;-66
2023/07/04 01:29:07;;;;;;;4.23;1.73;;;17.80;99.90;;;;;;5047393;28;20464;-67
2023/07/04 01:31:35;;;;;;;3.20;2.00;;;17.90;99.90;;;;;;5047571;28;20497;-67
2023/07/04 01:34:04;;;;;;;6.73;1.77;;;18.00;99.90;;;;;;5046131;28;20736;-67
2023/07/04 01:36:34;;;;;;;5.20;2.20;;;18.00;99.90;;;;;;5048856;28;20432;-66
2023/07/04 01:39:00;;;;;;;5.07;1.77;;;18.10;99.90;;;;;;5051377;28;20419;-66
2023/07/04 01:41:26;;;;;;;3.87;2.60;;;18.10;99.90;;;;;;5050976;28;20498;-66
2023/07/04 01:44:09;;;;;;;3.83;1.90;;;18.10;99.90;;;;;;5051277;28;20245;-66
2023/07/04 01:46:35;;;;;;;3.43;2.27;;;18.10;99.90;;;;;;5051170;28;20449;-66
2023/07/04 01:49:02;;;;;;;3.67;1.90;;;18.20;99.90;;;;;;5049700;28;20468;-66
2023/07/04 01:51:35;;;;;;;3.60;2.03;;;18.20;99.90;;;;;;5050910;28;20520;-66
2023/07/04 01:54:01;;;;;;;3.97;1.80;;;18.20;99.90;;;;;;5051506;28;20478;-67
2023/07/04 01:56:29;;;;;;;5.70;2.10;;;18.20;99.90;;;;;;5050991;28;20959;-67
2023/07/04 01:58:55;;;;;;;4.30;1.83;;;18.30;99.90;;;;;;5050883;28;20437;-67
2023/07/04 02:01:22;;;;;;;4.77;1.93;;;18.30;99.90;;;;;;5050607;28;20449;-67
2023/07/04 02:03:47;;;;;;;3.90;1.90;;;18.20;99.90;;;;;;5050926;28;20484;-67
2023/07/04 02:06:14;;;;;;;2.83;1.63;;;18.30;99.90;;;;;;5050709;28;20423;-66
2023/07/04 02:08:40;;;;;;;3.17;1.90;;;18.20;99.90;;;;;;5050652;28;20181;-66
2023/07/04 02:11:06;;;;;;;3.90;1.73;;;18.30;99.90;;;;;;5050739;28;20790;-67
2023/07/04 02:13:32;;;;;;;5.40;2.07;;;18.20;99.90;;;;;;5049231;28;20519;-66
2023/07/04 02:15:57;;;;;;;3.67;1.60;;;18.20;99.90;;;;;;5049185;28;20419;-67
2023/07/04 02:18:25;;;;;;;3.30;2.17;;;18.20;99.90;;;;;;5050542;28;20269;-66
2023/07/04 02:20:50;;;;;;;4.07;1.43;;;18.10;99.90;;;;;;5049020;28;20237;-65
2023/07/04 02:23:16;;;;;;;1.60;1.50;;;18.10;99.90;;;;;;5050426;28;20494;-65
2023/07/04 02:25:42;;;;;;;5.27;1.57;;;18.00;99.90;;;;;;5050391;28;20202;-66
2023/07/04 02:28:09;;;;;;;4.83;2.10;;;17.90;99.90;;;;;;5050244;28;20192;-66
2023/07/04 02:30:35;;;;;;;1.90;1.63;;;18.00;99.90;;;;;;5048760;28;20480;-66
2023/07/04 02:33:01;;;;;;;2.70;1.77;;;17.90;99.90;;;;;;5050226;28;20415;-67
2023/07/04 02:35:28;;;;;;;3.10;2.20;;;17.90;99.90;;;;;;5050262;28;20317;-67
2023/07/04 02:37:54;;;;;;;7.10;2.57;;;17.80;99.90;;;;;;5050127;28;20424;-66
2023/07/04 02:40:20;;;;;;;3.80;1.87;;;17.60;99.90;;;;;;5050122;28;20804;-67
2023/07/04 02:42:45;;;;;;;3.13;1.80;;;17.40;99.90;;;;;;5048631;28;20200;-67
2023/07/04 02:45:11;;;;;;;2.20;1.70;;;17.20;99.90;;;;;;5050031;28;20316;-67
2023/07/04 02:47:36;;;;;;;3.40;1.90;;;17.20;99.90;;;;;;5049173;28;20648;-67
2023/07/04 02:50:02;;;;;;;5.00;2.13;;;17.40;99.90;;;;;;5050149;28;20692;-67
2023/07/04 02:52:30;;;;;;;3.00;2.00;;;17.30;99.90;;;;;;5049864;28;20183;-67
2023/07/04 02:54:56;;;;;;;2.30;1.77;;;17.30;99.90;;;;;;5049808;28;20432;-66
2023/07/04 02:57:22;;;;;;;9.13;2.33;;;17.30;99.90;;;;;;5049767;28;20411;-67
2023/07/04 02:59:48;;;;;;;7.03;2.20;;;17.30;99.90;;;;;;5049581;28;20661;-66
2023/07/04 03:02:14;;;;;;;5.10;2.00;;;17.10;99.90;;;;;;5049579;28;20424;-66
2023/07/04 03:04:39;;;;;;;3.70;2.40;;;16.90;99.90;;;;;;5049649;28;20186;-67
2023/07/04 03:07:06;;;;;;;1.63;1.53;;;16.80;99.90;;;;;;5048174;28;20278;-66
2023/07/04 03:09:31;;;;;;;3.93;2.10;;;16.80;99.90;;;;;;5049446;28;20215;-66
2023/07/04 03:11:57;;;;;;;3.70;2.10;;;16.80;99.90;;;;;;5048039;28;20441;-67
2023/07/04 03:14:23;;;;;;;4.27;2.03;;;16.70;99.90;;;;;;5049427;28;20177;-67
2023/07/04 03:16:49;;;;;;;6.50;2.30;;;16.70;99.90;;;;;;5049511;28;20190;-66
2023/07/04 03:19:15;;;;;;;5.60;1.57;;;16.80;99.90;;;;;;5049797;28;20413;-66
2023/07/04 03:21:40;;;;;;;3.17;1.87;;;16.70;99.90;;;;;;5049290;28;20775;-67
2023/07/04 03:24:06;;;;;;;2.10;1.90;;;16.80;99.90;;;;;;5049647;28;20217;-67
2023/07/04 03:26:34;;;;;;;1.97;1.53;;;16.80;99.90;;;;;;5049283;28;20651;-67
2023/07/04 03:29:00;;;;;;;3.20;1.83;;;16.80;99.90;;;;;;5048918;28;20215;-67
2023/07/04 03:31:26;;;;;;;2.57;1.60;;;16.90;99.90;;;;;;5049231;28;21261;-67
2023/07/04 03:33:51;;;;;;;2.87;1.93;;;16.90;99.90;;;;;;5049036;28;20447;-66
2023/07/04 03:36:17;;;;;;;4.43;1.97;;;17.10;99.90;;;;;;5049231;28;20229;-66
2023/07/04 03:38:43;;;;;;;3.50;1.60;;;17.10;99.90;;;;;;5049105;28;20181;-66
2023/07/04 03:41:08;;;;;;;3.60;1.50;;;17.10;99.90;;;;;;5047888;28;20206;-66
2023/07/04 03:43:34;;;;;;;1.97;1.60;;;17.20;99.90;;;;;;5049323;28;20184;-66
2023/07/04 03:45:59;;;;;;;3.13;1.50;;;17.10;99.90;;;;;;5049033;28;20654;-66
2023/07/04 03:48:25;;;;;;;1.33;1.23;;;17.10;99.90;;;;;;5049181;28;20182;-67
2023/07/04 03:50:50;;;;;;;1.93;1.37;;;17.30;99.90;;;;;;5049011;28;20230;-67
2023/07/04 03:53:16;;;;;;;6.77;2.23;;;17.30;99.90;;;;;;5049105;28;20174;-66
2023/07/04 03:55:41;;;;;;;2.30;1.63;;;17.40;99.90;;;;;;5047821;28;20178;-66
2023/07/04 03:58:07;;;;;;;2.83;1.90;;;17.30;99.90;;;;;;5047667;28;20270;-66
2023/07/04 04:00:33;;;;;;;2.33;1.63;;;17.30;99.90;;;;;;5048795;28;20221;-67
2023/07/04 04:02:58;;;;;;;2.90;1.60;;;17.40;99.90;;;;;;5049065;28;20616;-67
2023/07/04 04:05:25;;;;;;;3.00;1.80;;;17.50;99.90;;;;;;5049145;28;20244;-68
2023/07/04 04:07:51;;;;;;;6.83;1.87;;;17.40;99.90;;;;;;5047529;28;20192;-67
2023/07/04 04:10:17;;;;;;;4.50;2.00;;;17.30;99.90;;;;;;5048976;28;21162;-67
2023/07/04 04:12:43;;;;;;;2.00;1.40;;;17.30;99.90;;;;;;5049194;28;20174;-66
2023/07/04 04:15:09;;;;;;;2.67;1.97;;;17.30;99.90;;;;;;5049295;28;20780;-67
2023/07/04 04:17:35;;;;;;;4.40;1.60;;;17.30;99.90;;;;;;5048072;28;20590;-67
2023/07/04 04:20:06;;;;;;;3.17;1.90;;;17.30;99.90;;;;;;5049277;28;20819;-67
2023/07/04 04:22:32;;;;;;;2.60;1.50;;;17.30;99.90;;;;;;5049178;28;20426;-67
2023/07/04 04:24:58;;;;;;;2.40;1.70;;;17.40;99.90;;;;;;5049269;28;20921;-66
2023/07/04 04:27:26;;;;;;;4.97;1.77;;;17.40;99.90;;;;;;5049276;28;20430;-67
2023/07/04 04:29:53;;;;;;;1.70;1.50;;;17.40;99.90;;;;;;5049004;28;20301;-66
2023/07/04 04:32:18;;;;;;;3.20;1.63;;;17.50;99.90;;;;;;5049269;28;20443;-66
2023/07/04 04:34:44;;;;;;;2.00;1.50;;;17.50;99.90;;;;;;5049374;28;21009;-66
2023/07/04 04:37:09;;;;;;;2.10;1.30;;;17.60;99.90;;;;;;5048756;28;20578;-67
2023/07/04 04:39:36;;;;;;;4.23;2.57;;;17.60;99.90;;;;;;5048700;28;20190;-66
2023/07/04 04:42:01;;;;;;;4.83;2.37;;;17.70;99.90;;;;;;5047416;28;20204;-67
2023/07/04 04:44:27;;;;;;;1.83;1.60;;;17.70;99.90;;;;;;5048979;28;20419;-67
2023/07/04 04:46:53;;;;;;;3.27;2.07;;;17.70;99.90;;;;;;5048880;28;20718;-66
2023/07/04 04:49:18;;;;;;;2.57;1.73;;;17.70;99.90;;;;;;5048482;28;20214;-67
2023/07/04 04:51:44;;;;;;;3.70;1.47;;;17.90;99.90;;;;;;5046738;28;20745;-67
2023/07/04 04:54:14;;;;;;;2.20;2.00;;;18.10;99.90;;;;;;5045357;28;20179;-66
2023/07/04 04:56:44;;;;;;;2.50;2.00;;;18.20;99.90;;;;;;5046731;28;20416;-67
2023/07/04 04:59:11;;;;;;;2.10;2.00;;;18.30;99.90;;;;;;5045187;28;20441;-67
2023/07/04 05:01:37;;;;;;;4.07;2.03;;;18.30;99.90;;;;;;5046613;28;21132;-67
2023/07/04 05:04:04;;;;;;;2.43;1.93;;;18.20;99.90;;;;;;5046547;28;20939;-67
2023/07/04 05:06:30;;;;;;;3.00;1.73;;;18.30;99.90;;;;;;5046789;28;20433;-66
2023/07/04 05:08:56;;;;;;;4.50;1.80;;;18.30;99.90;;;;;;5047189;28;20476;-67
2023/07/04 05:11:22;;;;;;;2.13;1.93;;;18.30;99.90;;;;;;5047887;28;20448;-66
2023/07/04 05:13:48;;;;;;;3.53;1.60;;;18.30;99.90;;;;;;5052051;28;20177;-66
2023/07/04 05:16:16;;;;;;;4.07;1.60;;;18.30;99.90;;;;;;5051597;28;20190;-68
2023/07/04 05:18:43;;;;;;;3.27;2.07;;;18.30;99.90;;;;;;5051277;28;20420;-67
2023/07/04 05:21:11;;;;;;;3.90;1.90;;;18.30;99.90;;;;;;5049472;28;20437;-66
2023/07/04 05:23:39;;;;;;;3.27;2.20;;;18.30;99.90;;;;;;5051504;28;20449;-66
2023/07/04 05:26:11;;;;;;;5.43;1.90;;;18.40;99.90;;;;;;5050331;28;20420;-65
2023/07/04 05:28:37;;;;;;;6.77;2.40;;;18.50;99.90;;;;;;5049035;28;20605;-65
2023/07/04 05:31:08;;;;;;;4.40;2.17;;;18.50;99.90;;;;;;5050556;28;20436;-66
2023/07/04 05:33:34;;;;;;;5.77;2.00;;;18.60;99.90;;;;;;5050552;28;20409;-67
2023/07/04 05:36:07;;;;;;;3.43;1.87;;;18.70;99.90;;;;;;5050312;28;20926;-66
2023/07/04 05:38:34;;;;;;;2.30;2.00;;;18.80;99.90;;;;;;5049948;28;20573;-66
2023/07/04 05:41:00;;;;;;;3.77;1.80;;;18.80;99.90;;;;;;5049709;28;20939;-68
2023/07/04 05:43:27;;;;;;;7.23;2.10;;;19.00;99.90;;;;;;5049704;28;20423;-67
2023/07/04 05:45:54;;;;;;;8.67;2.90;;;19.10;99.90;;;;;;5049954;28;20957;-67
2023/07/04 05:48:20;;;;;;;4.27;2.23;;;19.20;99.90;;;;;;5048188;28;20426;-67
2023/07/04 05:50:57;;;;;;;4.97;2.20;;;19.30;99.90;;;;;;5049787;28;20469;-67
2023/07/04 05:53:31;;;;;;;3.70;2.37;;;19.30;99.90;;;;;;5048355;28;20430;-66
2023/07/04 05:56:27;;;;;;;5.93;2.33;;;19.40;99.90;;;;;;5048070;28;20453;-66
2023/07/04 05:59:02;;;;;;;9.07;2.83;;;19.40;99.90;;;;;;5049398;28;20464;-66
2023/07/04 06:01:29;;;;;;;2.60;2.20;;;19.40;99.90;;;;;;5049695;28;20935;-67
2023/07/04 06:03:56;;;;;;;3.90;2.20;;;19.50;99.90;;;;;;5049456;28;20435;-67
2023/07/04 06:06:25;;;;;;;3.53;2.33;;;19.50;99.90;;;;;;5048274;28;20576;-66
2023/07/04 06:08:52;;;;;;;3.57;2.20;;;19.40;99.90;;;;;;5049299;28;20523;-66
2023/07/04 06:11:19;;;;;;;3.43;2.37;;;19.40;99.90;;;;;;5049051;28;20450;-66
2023/07/04 06:13:45;;;;;;;3.23;2.47;;;19.50;99.90;;;;;;5049301;28;21005;-66
2023/07/04 06:16:11;;;;;;;3.07;2.10;;;19.50;99.90;;;;;;5049344;28;20456;-66
2023/07/04 06:18:37;;;;;;;4.30;2.43;;;19.60;99.90;;;;;;5047407;28;20210;-66
2023/07/04 06:21:14;;;;;;;4.17;1.90;;;19.70;99.90;;;;;;5048997;28;20838;-66
2023/07/04 06:23:41;;;;;;;3.70;2.63;;;19.70;99.90;;;;;;5048679;28;20520;-67
2023/07/04 06:26:08;;;;;;;6.77;2.50;;;19.70;99.90;;;;;;5049092;28;20432;-67
2023/07/04 06:28:35;;;;;;;5.17;2.70;;;19.70;99.90;;;;;;5049076;28;20523;-66
2023/07/04 06:31:10;;;;;;;3.70;2.30;;;19.80;99.90;;;;;;5048978;28;20878;-66
2023/07/04 06:33:36;;;;;;;2.90;2.23;;;19.80;99.90;;;;;;5049010;28;20430;-65
2023/07/04 06:36:02;;;;;;;7.07;1.83;;;19.90;99.90;;;;;;5048953;28;20428;-67
2023/07/04 06:38:28;;;;;;;8.63;2.00;;;20.00;99.90;;;;;;5048938;28;20191;-67
2023/07/04 06:41:08;;;;;;;5.57;2.60;;;20.00;99.90;;;;;;5047718;28;20450;-67
2023/07/04 06:43:34;;;;;;;3.27;2.50;;;20.00;99.90;;;;;;5048679;28;20214;-66
2023/07/04 06:46:01;;;;;;;7.03;2.73;;;20.10;99.90;;;;;;5048883;28;20433;-66
2023/07/04 06:48:28;;;;;;;4.60;2.80;;;20.00;99.90;;;;;;5048780;28;20465;-67
2023/07/04 06:50:57;;;;;;;5.03;2.40;;;20.00;99.90;;;;;;5030610;28;20487;-67
2023/07/04 06:53:23;;;;;;;2.50;2.10;;;20.10;99.90;;;;;;5048791;28;20436;-67
2023/07/04 06:55:49;;;;;;;3.20;2.10;;;20.10;99.90;;;;;;5048697;28;21026;-67
2023/07/04 06:58:15;;;;;;;4.23;2.37;;;20.20;99.90;;;;;;5048456;28;20218;-67
2023/07/04 07:00:41;;;;;;;3.37;2.30;;;20.30;99.90;;;;;;5048578;28;20204;-67
2023/07/04 07:03:07;;;;;;;6.27;2.70;;;20.40;99.90;;;;;;5048268;28;20796;-67
2023/07/04 07:05:40;;;;;;;4.40;2.40;;;20.40;99.90;;;;;;5047159;28;20418;-66
2023/07/04 07:08:06;;;;;;;7.10;2.23;;;20.40;99.90;;;;;;5048864;28;20411;-66
2023/07/04 07:10:36;;;;;;;7.57;2.70;;;20.60;99.90;;;;;;5047147;28;21317;-66
2023/07/04 07:13:03;;;;;;;5.70;2.97;;;20.60;99.90;;;;;;5048919;28;20422;-67
2023/07/04 07:15:29;;;;;;;5.97;2.90;;;20.70;99.90;;;;;;5048263;28;20479;-66
2023/07/04 07:17:54;;;;;;;3.73;2.57;;;20.80;99.90;;;;;;5048373;28;20422;-67
2023/07/04 07:20:20;;;;;;;5.60;2.40;;;21.00;99.90;;;;;;5048412;28;20229;-66
2023/07/04 07:22:46;;;;;;;4.60;2.20;;;21.20;99.90;;;;;;5048775;28;20651;-67
2023/07/04 07:25:11;;;;;;;5.17;2.40;;;21.30;99.90;;;;;;5048743;28;20726;-66
2023/07/04 07:27:37;;;;;;;6.10;2.77;;;21.10;99.90;;;;;;5048742;28;20495;-66
2023/07/04 07:30:03;;;;;;;3.80;2.23;;;21.20;99.90;;;;;;5046891;28;20234;-67
2023/07/04 07:32:29;;;;;;;7.63;2.40;;;21.40;99.90;;;;;;5048593;28;20555;-66
2023/07/04 07:34:54;;;;;;;4.57;2.23;;;21.60;99.90;;;;;;5046412;28;20429;-66
2023/07/04 07:37:20;;;;;;;6.47;2.43;;;21.70;99.90;;;;;;5048524;28;20180;-67
2023/07/04 07:39:46;;;;;;;7.17;2.60;;;21.60;99.90;;;;;;5046346;28;20996;-67
2023/07/04 07:42:12;;;;;;;7.40;3.17;;;21.60;99.90;;;;;;5048526;28;20180;-66
2023/07/04 07:44:38;;;;;;;6.20;2.53;;;21.60;99.90;;;;;;5048450;28;20209;-66
2023/07/04 07:47:04;;;;;;;9.27;2.73;;;21.50;99.90;;;;;;5048683;28;20836;-67
2023/07/04 07:49:30;;;;;;;5.10;2.30;;;21.50;99.90;;;;;;5046908;28;20848;-66
2023/07/04 07:51:57;;;;;;;5.67;2.93;;;21.50;99.90;;;;;;5048346;28;20446;-66
2023/07/04 07:54:22;;;;;;;6.13;2.70;;;21.60;99.90;;;;;;5048143;28;20277;-67
2023/07/04 07:56:48;;;;;;;13.60;2.70;;;21.70;99.90;;;;;;5048361;28;20517;-67
2023/07/04 07:59:14;;;;;;;9.30;3.40;;;21.70;99.90;;;;;;5048077;28;20184;-67
2023/07/04 08:01:40;;;;;;;8.37;2.90;;;21.60;98.40;;;;;;5046652;28;20541;-67
2023/07/04 08:04:06;;;;;;;10.00;3.13;;;21.60;99.90;;;;;;5048220;28;20411;-66
2023/07/04 08:06:38;;;;;;;6.70;2.83;;;21.70;98.40;;;;;;5048312;28;20220;-67
2023/07/04 08:09:10;;;;;;;8.53;2.93;;;21.80;98.60;;;;;;5048011;28;20214;-66
2023/07/04 08:11:37;;;;;;;4.77;2.87;;;21.80;97.80;;;;;;5048176;28;20519;-66
2023/07/04 08:14:02;;;;;;;7.77;2.90;;;21.90;98.40;;;;;;5048073;28;20418;-67
2023/07/04 08:16:39;;;;;;;8.50;3.10;;;22.00;99.90;;;;;;5047874;28;20435;-67
2023/07/04 08:19:05;;;;;;;8.50;3.60;;;22.10;98.50;;;;;;5046759;28;20188;-67
2023/07/04 08:21:30;;;;;;;6.03;2.73;;;22.10;97.30;;;;;;5047551;28;20500;-66
2023/07/04 08:23:56;;;;;;;10.80;3.40;;;22.10;97.70;;;;;;5047733;28;20298;-66
2023/07/04 08:26:23;;;;;;;10.53;3.40;;;22.20;98.20;;;;;;5047245;28;20287;-67
2023/07/04 08:28:51;;;;;;;5.10;2.80;;;22.40;97.90;;;;;;5047140;28;20966;-66
2023/07/04 08:31:18;;;;;;;7.83;2.77;;;22.50;98.10;;;;;;5046823;28;20477;-66
2023/07/04 08:33:45;;;;;;;11.60;3.80;;;22.40;97.50;;;;;;5047046;28;20419;-67
2023/07/04 08:36:11;;;;;;;7.23;2.67;;;22.40;99.80;;;;;;5047048;28;20426;-67
2023/07/04 08:38:37;;;;;;;4.17;2.33;;;22.50;99.40;;;;;;5045401;28;20428;-67
2023/07/04 08:41:09;;;;;;;8.70;2.97;;;22.70;98.40;;;;;;5046896;28;21027;-66
2023/07/04 08:44:01;;;;;;;7.47;2.80;;;22.90;96.80;;;;;;5046939;28;20265;-74
2023/07/04 08:46:33;;;;;;;13.17;3.47;;;23.10;96.40;;;;;;5049535;28;21262;-75
2023/07/04 08:49:00;;;;;;;7.13;3.03;;;23.20;94.50;;;;;;5032921;28;20433;-75
2023/07/04 08:51:43;;;;;;;7.60;3.10;;;23.50;93.80;;;;;;5049439;28;20443;-73
2023/07/04 08:54:12;;;;;;;9.10;3.57;;;23.40;91.70;;;;;;5050978;28;20404;-75
2023/07/04 08:56:38;;;;;;;9.63;3.80;;;23.60;93.90;;;;;;5033209;28;21104;-75
2023/07/04 08:59:21;;;;;;;8.87;3.60;;;23.60;91.80;;;;;;5050894;28;20803;-74
2023/07/04 09:02:02;;;;;;;9.67;3.57;;;23.70;91.20;;;;;;5050963;28;20447;-76
2023/07/04 09:04:55;;;;;;;5.90;3.20;;;23.80;91.90;;;;;;5049573;28;20460;-75
2023/07/04 09:07:32;;;;;;;7.80;3.30;;;23.70;92.30;;;;;;5051060;28;20422;-75
2023/07/04 09:10:23;;;;;;;8.37;3.70;;;23.70;90.50;;;;;;5051643;28;20544;-75
2023/07/04 09:12:49;;;;;;;7.37;4.03;;;24.00;91.70;;;;;;5047262;28;20418;-76
2023/07/04 09:15:35;;;;;;;9.10;4.00;;;24.30;90.30;;;;;;5051436;28;20417;-75
2023/07/04 09:18:38;;;;;;;6.60;3.07;;;24.40;91.00;;;;;;5049955;28;20941;-74
2023/07/04 09:21:24;;;;;;;4.93;2.80;;;24.20;90.20;;;;;;5049780;28;20840;-75
2023/07/04 09:23:52;;;;;;;5.13;3.40;;;24.20;90.10;;;;;;5051305;28;20422;-75
2023/07/04 09:26:41;;;;;;;9.70;3.13;;;24.40;91.10;;;;;;5051294;28;20423;-75
2023/07/04 09:29:07;;;;;;;4.00;3.07;;;24.30;87.40;;;;;;5050245;28;20489;-75
2023/07/04 09:31:36;;;;;;;6.40;3.20;;;24.30;90.10;;;;;;5051495;28;20436;-75
2023/07/04 09:34:32;;;;;;;7.63;3.17;;;24.40;90.30;;;;;;5051177;28;20423;-75
2023/07/04 09:37:00;;;;;;;8.63;3.10;;;24.80;88.30;;;;;;5049381;28;20413;-76
2023/07/04 09:39:45;;;;;;;5.90;3.00;;;24.90;88.80;;;;;;5049453;28;20424;-76
2023/07/04 09:42:11;;;;;;;7.90;3.27;;;24.80;90.30;;;;;;5049432;28;20487;-75
2023/07/04 09:44:38;;;;;;;11.40;3.30;;;24.80;89.20;;;;;;5049219;28;20418;-74
2023/07/04 09:47:05;;;;;;;7.30;3.60;;;24.70;90.00;;;;;;5049278;28;20849;-74
2023/07/04 09:49:36;;;;;;;7.73;3.27;;;24.70;89.70;;;;;;5049330;28;20467;-74
2023/07/04 09:52:05;;;;;;;8.13;3.70;;;24.60;85.90;;;;;;5050706;28;20473;-74
2023/07/04 09:54:36;;;;;;;9.40;3.83;;;24.70;86.80;;;;;;5050743;28;20500;-75
2023/07/04 09:57:22;;;;;;;5.80;3.80;;;24.70;90.00;;;;;;5049952;28;20425;-75
2023/07/04 09:59:49;;;;;;;5.37;3.53;;;25.10;86.40;;;;;;5050173;28;20414;-75
2023/07/04 10:02:32;;;;;;;18.40;4.50;;;25.60;88.50;;;;;;5050182;28;20416;-75
2023/07/04 10:04:58;;;;;;;7.60;3.67;;;25.70;82.80;;;;;;5033958;28;20559;-74
2023/07/04 10:07:25;;;;;;;7.00;4.23;;;25.20;81.40;;;;;;5048543;28;20924;-75
2023/07/04 10:10:03;;;;;;;6.53;3.37;;;25.70;84.40;;;;;;5049666;28;20275;-75
2023/07/04 10:12:32;;;;;;;17.50;3.83;;;26.30;83.90;;;;;;5048223;28;20419;-76
2023/07/04 10:14:59;;;;;;;4.03;3.10;;;26.80;83.40;;;;;;5047938;28;20428;-75
2023/07/04 10:17:28;;;;;;;5.37;3.60;;;26.90;79.60;;;;;;5049535;28;20414;-75
2023/07/04 10:20:08;;;;;;;4.53;3.10;;;27.10;79.60;;;;;;5049231;28;20428;-74
2023/07/04 10:22:39;;;;;;;6.90;3.70;;;27.20;77.90;;;;;;5047743;28;20504;-74
2023/07/04 10:25:11;;;;;;;7.10;3.80;;;27.20;77.50;;;;;;5049534;28;20857;-75
2023/07/04 10:27:39;;;;;;;5.30;3.07;;;27.50;80.00;;;;;;5049065;28;20973;-76
2023/07/04 10:30:29;;;;;;;7.27;3.20;;;27.80;77.80;;;;;;5048908;28;20535;-74
2023/07/04 10:33:18;;;;;;;5.87;3.20;;;28.00;76.70;;;;;;5049115;28;20406;-75
2023/07/04 10:35:47;;;;;;;6.40;3.10;;;28.10;75.90;;;;;;5049037;28;20411;-75
2023/07/04 10:38:25;;;;;;;9.97;4.00;;;28.10;74.20;;;;;;5049099;28;20461;-71
2023/07/04 10:40:51;;;;;;;10.90;4.00;;;28.10;75.10;;;;;;5048512;28;20441;-76
2023/07/04 10:43:33;;;;;;;4.70;3.37;;;27.20;72.70;;;;;;5049284;28;20430;-75
2023/07/04 10:46:01;;;;;;;8.93;2.53;;;26.10;76.00;;;;;;5049194;28;20420;-75
2023/07/04 10:48:31;;;;;;;4.90;2.80;;;26.60;78.70;;;;;;5049563;28;20795;-73
2023/07/04 10:51:12;;;;;;;4.67;2.47;;;27.30;77.00;;;;;;5048796;28;20953;-74
2023/07/04 10:53:38;;;;;;;7.17;3.20;;;27.80;78.50;;;;;;5048703;28;20772;-74
2023/07/04 10:56:09;;;;;;;7.17;3.20;;;28.20;74.60;;;;;;5048558;28;20425;-75
2023/07/04 10:58:40;;;;;;;5.20;2.83;;;28.50;74.80;;;;;;5048640;28;20238;-75
2023/07/04 11:01:15;;;;;;;7.53;2.80;;;28.80;73.00;;;;;;5047022;28;20926;-75
2023/07/04 11:03:53;;;;;;;5.93;3.70;;;28.70;74.00;;;;;;5048156;28;20409;-75
2023/07/04 11:06:37;;;;;;;4.67;3.20;;;28.50;73.60;;;;;;5048632;28;20840;-75
2023/07/04 11:09:06;;;;;;;3.93;3.07;;;28.50;73.20;;;;;;5047331;28;20415;-74
2023/07/04 11:11:32;;;;;;;11.67;3.03;;;28.80;72.60;;;;;;5047081;28;20982;-74
2023/07/04 11:14:03;;;;;;;5.57;2.83;;;29.00;72.80;;;;;;5046841;28;20414;-74
2023/07/04 11:16:31;;;;;;;6.67;3.33;;;29.30;72.70;;;;;;5048157;28;20837;-75
2023/07/04 11:19:29;;;;;;;7.27;3.17;;;29.10;70.50;;;;;;5046591;28;20432;-74
2023/07/04 11:22:00;;;;;;;4.03;2.40;;;29.40;72.90;;;;;;5047245;28;20474;-74
2023/07/04 11:24:37;;;;;;;3.53;2.73;;;29.50;71.60;;;;;;5046599;28;21165;-74
2023/07/04 11:27:17;;;;;;;4.67;3.27;;;29.70;73.10;;;;;;5048936;28;20505;-73
2023/07/04 11:29:47;;;;;;;5.57;3.10;;;29.70;68.70;;;;;;5048043;28;21095;-74
2023/07/04 11:32:18;;;;;;;8.13;3.57;;;29.70;72.20;;;;;;5047798;28;20414;-76
2023/07/04 11:35:10;;;;;;;5.07;3.10;;;29.10;68.10;;;;;;5047704;28;20807;-73
2023/07/04 11:37:42;;;;;;;5.90;2.93;;;29.50;72.40;;;;;;5046657;28;20834;-74
2023/07/04 11:40:18;;;;;;;12.40;3.00;;;29.20;69.80;;;;;;5046455;28;20537;-74
2023/07/04 11:42:47;;;;;;;5.93;3.30;;;28.00;68.10;;;;;;5047924;28;20448;-75
2023/07/04 11:45:15;;;;;;;4.00;2.77;;;27.70;68.30;;;;;;5046152;28;20472;-74
2023/07/04 11:47:51;;;;;;;7.93;3.00;;;28.30;69.40;;;;;;5047536;28;20430;-75
2023/07/04 11:50:20;;;;;;;4.03;2.43;;;28.80;68.30;;;;;;5047858;28;20546;-73
2023/07/04 11:53:23;;;;;;;5.43;2.60;;;29.00;65.70;;;;;;5046786;28;20509;-73
2023/07/04 11:56:23;;;;;;;5.50;2.50;;;29.50;69.90;;;;;;5048217;28;21285;-72
2023/07/04 11:59:11;;;;;;;3.13;2.37;;;29.50;68.00;;;;;;5048185;28;20408;-73
2023/07/04 12:01:55;;;;;;;4.23;2.50;;;29.60;69.60;;;;;;5046413;28;20451;-74
2023/07/04 12:04:38;;;;;;;5.67;2.93;;;29.70;66.80;;;;;;5049886;28;20428;-73
2023/07/04 12:07:30;;;;;;;7.67;3.30;;;29.40;67.30;;;;;;5050447;28;20426;-74
2023/07/04 12:10:18;;;;;;;4.90;2.90;;;28.60;68.70;;;;;;5049893;28;20473;-74
2023/07/04 12:12:45;;;;;;;4.80;2.60;;;28.90;67.70;;;;;;5050737;28;20976;-75
2023/07/04 12:15:18;;;;;;;2.97;2.60;;;28.60;67.80;;;;;;5049838;28;20423;-73
2023/07/04 12:17:45;;;;;;;6.23;2.90;;;28.40;66.10;;;;;;5048774;28;20445;-74
2023/07/04 12:20:17;;;;;;;9.20;2.80;;;28.50;67.80;;;;;;5048162;28;20449;-73
2023/07/04 12:22:56;;;;;;;3.67;2.47;;;28.60;65.50;;;;;;5048781;28;20456;-74
2023/07/04 12:25:27;;;;;;;5.57;2.67;;;28.70;66.70;;;;;;5047033;28;20425;-73
2023/07/04 12:28:00;;;;;;;4.43;2.97;;;28.40;65.90;;;;;;5047199;28;20437;-74
2023/07/04 12:30:26;;;;;;;3.07;2.77;;;28.00;68.10;;;;;;5047341;28;20477;-75
2023/07/04 12:32:53;;;;;;;3.97;2.57;;;28.20;68.90;;;;;;5048582;28;20459;-74
2023/07/04 12:35:25;;;;;;;3.97;2.40;;;28.50;69.10;;;;;;5048724;28;20418;-74
2023/07/04 12:37:53;;;;;;;3.13;2.60;;;28.50;67.70;;;;;;5049128;28;20239;-74
2023/07/04 12:40:23;;;;;;;5.93;2.60;;;28.40;67.10;;;;;;5048732;28;20449;-73
2023/07/04 12:42:49;;;;;;;5.47;2.80;;;27.80;66.50;;;;;;5048111;28;20457;-73
2023/07/04 12:45:20;;;;;;;5.40;2.73;;;27.40;68.20;;;;;;5049021;28;20787;-73
2023/07/04 12:47:47;;;;;;;4.33;2.47;;;27.50;69.40;;;;;;5048780;28;20459;-73
2023/07/04 12:50:16;;;;;;;4.53;2.97;;;27.70;72.80;;;;;;5047983;28;20504;-73
2023/07/04 12:52:44;;;;;;;4.03;2.23;;;28.30;71.40;;;;;;5048096;28;20472;-74
2023/07/04 12:55:39;;;;;;;6.43;3.20;;;28.50;67.20;;;;;;5029940;28;20449;-73
2023/07/04 12:58:06;;;;;;;5.40;2.80;;;28.50;67.10;;;;;;5047574;28;20484;-74
2023/07/04 13:00:33;;;;;;;5.20;2.70;;;28.50;68.80;;;;;;5046629;28;20543;-74